createdAt,value
2023-01-30T00:01:53.846Z,37.63
2023-01-30T00:04:20.617Z,37.47
2023-01-30T00:06:47.613Z,37.32
2023-01-30T00:09:15.771Z,37.57
2023-01-30T00:11:42.760Z,37.48
2023-01-30T00:14:09.545Z,37.48
2023-01-30T00:16:36.359Z,37.88
2023-01-30T00:19:03.293Z,37.35
2023-01-30T00:21:30.136Z,37.90
2023-01-30T00:23:56.927Z,37.56
2023-01-30T00:26:23.651Z,37.58
2023-01-30T00:28:50.434Z,37.49
2023-01-30T00:31:17.581Z,37.85
2023-01-30T00:33:44.359Z,38.06
2023-01-30T00:36:11.474Z,37.95
2023-01-30T00:38:38.240Z,37.97
2023-01-30T00:41:05.358Z,38.11
2023-01-30T00:43:41.466Z,38.05
2023-01-30T00:46:25.218Z,38.22
2023-01-30T00:48:51.890Z,38.32
2023-01-30T00:51:18.594Z,38.41
2023-01-30T00:53:45.508Z,38.45
2023-01-30T00:56:12.218Z,38.70
2023-01-30T00:58:38.958Z,38.71
2023-01-30T01:01:05.673Z,38.79
2023-01-30T01:03:32.351Z,38.79
2023-01-30T01:05:59.002Z,38.64
2023-01-30T01:08:25.964Z,38.55
2023-01-30T01:10:52.677Z,38.78
2023-01-30T01:13:19.327Z,38.74
2023-01-30T01:15:46.051Z,39.17
2023-01-30T01:18:12.924Z,39.02
2023-01-30T01:20:39.577Z,38.81
2023-01-30T01:23:06.423Z,38.84
2023-01-30T01:25:33.123Z,39.20
2023-01-30T01:28:00.021Z,39.34
2023-01-30T01:30:26.804Z,39.22
2023-01-30T01:32:53.449Z,39.46
2023-01-30T01:35:20.372Z,39.11
2023-01-30T01:37:47.305Z,39.23
2023-01-30T01:40:27.586Z,39.44
2023-01-30T01:42:54.250Z,39.53
2023-01-30T01:45:22.683Z,39.39
2023-01-30T01:47:57.874Z,39.38
2023-01-30T01:50:27.327Z,39.32
2023-01-30T01:52:56.968Z,39.55
2023-01-30T01:55:25.015Z,39.60
2023-01-30T01:57:55.094Z,39.39
2023-01-30T02:00:22.282Z,39.26
2023-01-30T02:02:59.714Z,39.32
2023-01-30T02:05:30.981Z,39.43
2023-01-30T02:08:03.298Z,39.74
2023-01-30T02:10:37.207Z,39.70
2023-01-30T02:13:03.896Z,39.87
2023-01-30T02:15:30.979Z,39.82
2023-01-30T02:17:57.644Z,39.84
2023-01-30T02:20:34.178Z,39.78
2023-01-30T02:23:02.339Z,39.93
2023-01-30T02:25:38.634Z,39.78
2023-01-30T02:28:14.763Z,40.14
2023-01-30T02:31:01.379Z,40.10
2023-01-30T02:33:40.127Z,40.23
2023-01-30T02:36:17.372Z,40.43
2023-01-30T02:38:53.758Z,40.14
2023-01-30T02:41:30.616Z,40.08
2023-01-30T02:43:57.710Z,40.46
2023-01-30T02:46:30.603Z,40.43
2023-01-30T02:49:00.305Z,40.25
2023-01-30T02:51:30.169Z,40.69
2023-01-30T02:53:56.870Z,40.70
2023-01-30T02:56:23.593Z,40.46
2023-01-30T02:58:52.804Z,40.88
2023-01-30T03:01:33.286Z,40.42
2023-01-30T03:04:27.908Z,40.68
2023-01-30T03:06:54.800Z,40.91
2023-01-30T03:09:37.178Z,40.83
2023-01-30T03:12:13.727Z,40.84
2023-01-30T03:14:46.353Z,41.03
2023-01-30T03:17:14.513Z,41.18
2023-01-30T03:19:41.943Z,40.89
2023-01-30T03:22:09.073Z,41.24
2023-01-30T03:24:36.337Z,41.29
2023-01-30T03:27:05.961Z,41.56
2023-01-30T03:29:33.008Z,41.18
2023-01-30T03:31:59.743Z,41.38
2023-01-30T03:34:26.511Z,41.49
2023-01-30T03:36:53.278Z,41.32
2023-01-30T03:39:19.948Z,41.71
2023-01-30T03:41:47.374Z,41.87
2023-01-30T03:44:14.492Z,41.97
2023-01-30T03:46:41.208Z,41.72
2023-01-30T03:49:08.072Z,41.72
2023-01-30T03:51:34.754Z,42.15
2023-01-30T03:54:01.560Z,42.08
2023-01-30T03:56:28.228Z,42.16
2023-01-30T03:58:54.908Z,41.89
2023-01-30T04:01:22.088Z,41.80
2023-01-30T04:03:49.042Z,41.85
2023-01-30T04:06:16.080Z,41.91
2023-01-30T04:08:42.758Z,41.97
2023-01-30T04:11:09.439Z,42.28
2023-01-30T04:13:36.134Z,42.04
2023-01-30T04:16:19.664Z,42.08
2023-01-30T04:18:46.675Z,42.18
2023-01-30T04:21:13.724Z,42.33
2023-01-30T04:23:40.575Z,42.22
2023-01-30T04:26:08.072Z,42.49
2023-01-30T04:28:34.975Z,42.43
2023-01-30T04:31:01.647Z,42.41
2023-01-30T04:33:28.362Z,42.72
2023-01-30T04:35:56.013Z,42.78
2023-01-30T04:38:23.696Z,42.46
2023-01-30T04:40:52.465Z,42.87
2023-01-30T04:43:19.693Z,42.66
2023-01-30T04:45:46.915Z,43.00
2023-01-30T04:48:13.707Z,42.69
2023-01-30T04:50:41.318Z,43.05
2023-01-30T04:53:08.294Z,43.09
2023-01-30T04:55:35.058Z,43.12
2023-01-30T04:58:01.866Z,43.23
2023-01-30T05:00:28.982Z,42.98
2023-01-30T05:02:56.629Z,43.18
2023-01-30T05:05:23.994Z,43.46
2023-01-30T05:07:51.287Z,43.10
2023-01-30T05:10:18.117Z,43.04
2023-01-30T05:12:44.943Z,43.13
2023-01-30T05:15:12.372Z,43.08
2023-01-30T05:17:40.007Z,43.57
2023-01-30T05:20:08.215Z,43.34
2023-01-30T05:22:34.945Z,43.48
2023-01-30T05:25:01.747Z,43.35
2023-01-30T05:27:28.441Z,43.50
2023-01-30T05:29:55.094Z,43.53
2023-01-30T05:32:21.993Z,43.32
2023-01-30T05:34:49.758Z,43.56
2023-01-30T05:37:16.478Z,43.58
2023-01-30T05:39:43.283Z,43.47
2023-01-30T05:42:10.020Z,43.48
2023-01-30T05:44:36.997Z,43.63
2023-01-30T05:47:03.885Z,43.82
2023-01-30T05:49:30.623Z,43.45
2023-01-30T05:51:57.513Z,43.75
2023-01-30T05:54:24.225Z,43.94
2023-01-30T05:56:51.078Z,43.62
2023-01-30T05:59:18.908Z,43.76
2023-01-30T06:01:45.653Z,44.10
2023-01-30T06:04:12.468Z,44.63
2023-01-30T06:06:39.139Z,44.83
2023-01-30T06:09:05.809Z,44.94
2023-01-30T06:11:32.708Z,44.64
2023-01-30T06:13:59.662Z,44.43
2023-01-30T06:16:27.431Z,44.78
2023-01-30T06:18:54.261Z,44.49
2023-01-30T06:21:21.006Z,44.43
2023-01-30T06:23:48.083Z,44.42
2023-01-30T06:26:15.026Z,44.29
2023-01-30T06:28:42.478Z,43.78
2023-01-30T06:31:09.566Z,43.83
2023-01-30T06:33:36.569Z,44.04
2023-01-30T06:36:03.451Z,43.85
2023-01-30T06:38:30.399Z,43.94
2023-01-30T06:40:57.289Z,43.71
2023-01-30T06:43:24.428Z,43.35
2023-01-30T06:45:51.274Z,43.17
2023-01-30T06:48:17.997Z,43.22
2023-01-30T06:50:46.836Z,42.83
2023-01-30T06:53:13.613Z,42.83
2023-01-30T06:55:41.410Z,43.17
2023-01-30T06:58:09.598Z,42.57
2023-01-30T07:00:36.870Z,42.69
2023-01-30T07:03:03.593Z,42.25
2023-01-30T07:05:30.483Z,42.65
2023-01-30T07:07:57.285Z,42.16
2023-01-30T07:10:26.455Z,42.32
2023-01-30T07:12:53.884Z,42.29
2023-01-30T07:15:21.722Z,42.84
2023-01-30T07:17:48.999Z,42.32
2023-01-30T07:20:16.176Z,42.17
2023-01-30T07:22:43.715Z,41.76
2023-01-30T07:25:10.683Z,41.41
2023-01-30T07:27:38.307Z,41.32
2023-01-30T07:30:05.484Z,39.74
2023-01-30T07:32:32.199Z,39.09
2023-01-30T07:35:00.027Z,39.27
2023-01-30T07:37:26.867Z,39.22
2023-01-30T07:39:54.124Z,39.18
2023-01-30T07:42:21.125Z,39.17
2023-01-30T07:44:47.963Z,38.73
2023-01-30T07:47:16.379Z,38.65
2023-01-30T07:49:43.629Z,38.61
2023-01-30T07:52:11.189Z,38.99
2023-01-30T07:54:38.125Z,38.44
2023-01-30T07:57:05.021Z,38.19
2023-01-30T07:59:32.240Z,38.10
2023-01-30T08:01:59.230Z,38.52
2023-01-30T08:04:26.101Z,38.27
2023-01-30T08:06:53.344Z,37.93
2023-01-30T08:09:20.239Z,37.87
2023-01-30T08:11:47.142Z,37.83
2023-01-30T08:14:14.069Z,37.82
2023-01-30T08:16:41.925Z,37.57
2023-01-30T08:19:09.389Z,37.61
2023-01-30T08:21:37.050Z,37.82
2023-01-30T08:24:04.513Z,38.40
2023-01-30T08:26:32.429Z,38.34
2023-01-30T08:29:02.893Z,37.73
2023-01-30T08:31:29.819Z,38.13
2023-01-30T08:33:57.361Z,38.21
2023-01-30T08:36:24.421Z,38.65
2023-01-30T08:38:51.396Z,38.46
2023-01-30T08:41:18.305Z,38.38
2023-01-30T08:43:45.150Z,38.90
2023-01-30T08:46:11.980Z,37.86
2023-01-30T08:48:49.639Z,37.50
2023-01-30T08:51:17.420Z,37.36
2023-01-30T08:53:44.381Z,37.67
2023-01-30T08:56:11.462Z,37.48
2023-01-30T08:58:38.850Z,37.37
2023-01-30T09:01:07.431Z,36.77
2023-01-30T09:03:34.922Z,36.75
2023-01-30T09:06:01.820Z,36.84
2023-01-30T09:08:28.840Z,36.83
2023-01-30T09:10:59.714Z,37.20
2023-01-30T09:13:26.949Z,36.95
2023-01-30T09:15:54.055Z,37.02
2023-01-30T09:18:21.093Z,36.92
2023-01-30T09:20:52.736Z,36.57
2023-01-30T09:23:20.684Z,36.67
2023-01-30T09:25:47.610Z,36.51
2023-01-30T09:28:14.829Z,36.35
2023-01-30T09:30:47.183Z,36.61
2023-01-30T09:33:16.752Z,36.22
2023-01-30T09:35:43.635Z,36.24
2023-01-30T09:38:10.716Z,36.10
2023-01-30T09:40:44.246Z,36.12
2023-01-30T09:43:14.271Z,36.36
2023-01-30T09:45:44.961Z,36.13
2023-01-30T09:48:13.249Z,36.33
2023-01-30T09:50:48.018Z,36.31
2023-01-30T09:53:20.949Z,35.87
2023-01-30T09:55:48.529Z,36.20
2023-01-30T09:58:19.528Z,36.19
2023-01-30T10:00:48.472Z,36.41
2023-01-30T10:03:17.462Z,36.16
2023-01-30T10:05:47.534Z,36.25
2023-01-30T10:08:16.131Z,35.91
2023-01-30T10:10:46.054Z,36.27
2023-01-30T10:13:14.223Z,36.32
2023-01-30T10:15:47.679Z,36.36
2023-01-30T10:18:16.008Z,36.19
2023-01-30T10:20:50.381Z,36.31
2023-01-30T10:23:17.770Z,36.46
2023-01-30T10:25:47.012Z,36.18
2023-01-30T10:28:17.490Z,35.98
2023-01-30T10:30:46.770Z,36.35
2023-01-30T10:33:16.690Z,35.98
2023-01-30T10:35:46.042Z,36.29
2023-01-30T10:38:13.348Z,36.15
2023-01-30T10:40:42.663Z,36.25
2023-01-30T10:43:12.612Z,36.56
2023-01-30T10:45:45.769Z,35.96
2023-01-30T10:48:16.163Z,36.18
2023-01-30T10:50:47.083Z,36.13
2023-01-30T10:53:17.386Z,36.27
2023-01-30T10:55:47.927Z,35.88
2023-01-30T10:58:18.369Z,36.50
2023-01-30T11:00:47.248Z,36.23
2023-01-30T11:03:17.385Z,36.66
2023-01-30T11:05:47.324Z,36.54
2023-01-30T11:08:17.298Z,36.32
2023-01-30T11:10:44.204Z,36.45
2023-01-30T11:13:15.128Z,36.22
2023-01-30T11:15:42.658Z,36.64
2023-01-30T11:18:41.379Z,36.52
2023-01-30T11:21:01.892Z,36.61
2023-01-30T11:23:33.670Z,36.33
2023-01-30T11:26:11.030Z,36.39
2023-01-30T11:28:41.851Z,36.14
2023-01-30T11:31:13.310Z,36.44
2023-01-30T11:33:42.373Z,36.46
2023-01-30T11:36:24.727Z,36.22
2023-01-30T11:38:57.468Z,36.53
2023-01-30T11:41:24.961Z,36.40
2023-01-30T11:43:52.247Z,36.69
2023-01-30T11:46:20.772Z,36.54
2023-01-30T11:49:11.096Z,36.72
2023-01-30T11:51:38.768Z,36.96
2023-01-30T11:54:08.072Z,36.91
2023-01-30T11:56:39.581Z,37.02
2023-01-30T11:59:09.598Z,36.82
2023-01-30T12:01:37.615Z,37.13
2023-01-30T12:04:07.597Z,37.16
2023-01-30T12:06:36.540Z,36.94
2023-01-30T12:09:05.396Z,37.11
2023-01-30T12:11:35.345Z,36.67
2023-01-30T12:14:05.687Z,36.83
2023-01-30T12:16:36.553Z,37.18
2023-01-30T12:19:06.573Z,36.81
2023-01-30T12:21:35.032Z,36.95
2023-01-30T12:24:05.680Z,37.35
2023-01-30T12:26:36.579Z,37.38
2023-01-30T12:29:09.033Z,36.89
2023-01-30T12:31:39.697Z,37.23
2023-01-30T12:34:09.590Z,36.95
2023-01-30T12:36:40.480Z,37.34
2023-01-30T12:39:10.366Z,36.93
2023-01-30T12:41:40.951Z,36.98
2023-01-30T12:44:08.344Z,37.09
2023-01-30T12:46:44.512Z,37.41
2023-01-30T12:52:02.677Z,37.28
2023-01-30T12:54:38.951Z,37.34
2023-01-30T12:57:06.547Z,37.22
2023-01-30T12:59:36.591Z,37.38
2023-01-30T13:02:03.788Z,37.29
2023-01-30T13:04:46.903Z,37.21
2023-01-30T13:07:29.429Z,37.15
2023-01-30T13:10:00.459Z,37.30
2023-01-30T13:12:30.825Z,37.28
2023-01-30T13:15:00.989Z,37.26
2023-01-30T13:17:31.007Z,37.40
2023-01-30T13:20:00.931Z,37.40
2023-01-30T13:22:35.678Z,37.15
2023-01-30T13:25:07.119Z,37.28
2023-01-30T13:27:36.787Z,37.22
2023-01-30T13:30:06.618Z,37.60
2023-01-30T13:32:36.244Z,37.35
2023-01-30T13:35:07.609Z,37.40
2023-01-30T13:37:36.069Z,37.29
2023-01-30T13:40:05.427Z,37.25
2023-01-30T13:42:33.640Z,37.54
2023-01-30T13:45:01.514Z,37.64
2023-01-30T13:47:35.182Z,37.52
2023-01-30T13:50:10.566Z,37.64
2023-01-30T13:52:43.888Z,37.84
2023-01-30T13:55:21.720Z,37.78
2023-01-30T13:57:51.721Z,37.89
2023-01-30T14:00:22.167Z,37.38
2023-01-30T14:02:52.019Z,37.44
2023-01-30T14:05:47.390Z,37.50
2023-01-30T14:08:22.150Z,37.21
2023-01-30T14:10:50.135Z,37.55
2023-01-30T14:13:18.649Z,37.22
2023-01-30T14:15:49.649Z,37.41
2023-01-30T14:18:22.172Z,37.58
2023-01-30T14:20:50.962Z,37.29
2023-01-30T14:23:22.661Z,37.57
2023-01-30T14:25:50.838Z,37.55
2023-01-30T14:28:18.043Z,37.74
2023-01-30T14:30:45.619Z,37.32
2023-01-30T14:33:15.596Z,37.34
2023-01-30T14:35:44.837Z,37.70
2023-01-30T14:38:14.026Z,37.66
2023-01-30T14:40:42.780Z,37.38
2023-01-30T14:43:12.711Z,37.29
2023-01-30T14:45:42.852Z,37.33
2023-01-30T14:48:13.149Z,37.39
2023-01-30T14:50:40.647Z,37.15
2023-01-30T14:53:15.109Z,37.12
2023-01-30T14:55:42.547Z,37.28
2023-01-30T14:58:15.488Z,36.87
2023-01-30T15:00:42.924Z,37.32
2023-01-30T15:03:17.173Z,36.86
2023-01-30T15:05:47.010Z,37.02
2023-01-30T15:08:17.287Z,36.99
2023-01-30T15:10:47.433Z,36.88
2023-01-30T15:13:17.543Z,36.92
2023-01-30T15:15:52.534Z,36.80
2023-01-30T15:18:21.014Z,36.56
2023-01-30T15:20:59.193Z,36.56
2023-01-30T15:23:28.409Z,36.34
2023-01-30T15:26:04.120Z,36.66
2023-01-30T15:28:38.089Z,36.22
2023-01-30T15:31:07.430Z,36.34
2023-01-30T15:33:34.328Z,36.21
2023-01-30T15:36:18.111Z,36.47
2023-01-30T15:38:45.741Z,36.31
2023-01-30T15:41:12.723Z,35.99
2023-01-30T15:43:42.807Z,36.15
2023-01-30T15:46:14.874Z,36.46
2023-01-30T15:48:46.237Z,36.48
2023-01-30T15:51:16.917Z,36.15
2023-01-30T15:53:46.010Z,36.29
2023-01-30T15:56:18.349Z,36.30
2023-01-30T15:58:45.801Z,36.29
2023-01-30T16:01:17.543Z,36.38
2023-01-30T16:03:44.652Z,36.39
2023-01-30T16:06:14.707Z,36.42
2023-01-30T16:08:42.365Z,36.56
2023-01-30T16:11:10.892Z,36.22
2023-01-30T16:13:40.092Z,36.67
2023-01-30T16:16:13.146Z,36.65
2023-01-30T16:18:41.936Z,36.31
2023-01-30T16:21:11.134Z,36.39
2023-01-30T16:23:42.200Z,36.58
2023-01-30T16:26:14.681Z,36.63
2023-01-30T16:28:42.098Z,36.00
2023-01-30T16:31:10.421Z,36.47
2023-01-30T16:33:39.355Z,36.14
2023-01-30T16:36:26.674Z,36.29
2023-01-30T16:38:54.907Z,36.18
2023-01-30T16:41:25.089Z,35.98
2023-01-30T16:44:08.158Z,36.40
2023-01-30T16:46:39.709Z,36.05
2023-01-30T16:49:07.096Z,36.18
2023-01-30T16:51:34.651Z,36.33
2023-01-30T16:54:04.050Z,36.33
2023-01-30T16:56:33.848Z,36.33
2023-01-30T16:59:02.182Z,36.30
2023-01-30T17:01:32.863Z,36.13
2023-01-30T17:04:02.473Z,36.19
2023-01-30T17:06:31.217Z,36.12
2023-01-30T17:08:59.199Z,36.35
2023-01-30T17:11:29.786Z,36.30
2023-01-30T17:14:00.157Z,35.90
2023-01-30T17:16:28.566Z,35.83
2023-01-30T17:18:58.778Z,36.08
2023-01-30T17:21:28.754Z,35.89
2023-01-30T17:23:58.470Z,36.31
2023-01-30T17:26:25.508Z,36.12
2023-01-30T17:28:54.631Z,36.27
2023-01-30T17:31:23.324Z,36.12
2023-01-30T17:33:50.352Z,36.05
2023-01-30T17:36:23.783Z,35.93
2023-01-30T17:38:51.778Z,35.75
2023-01-30T17:41:21.044Z,35.74
2023-01-30T17:43:49.778Z,35.99
2023-01-30T17:46:18.099Z,35.75
2023-01-30T17:48:45.968Z,36.22
2023-01-30T17:51:14.715Z,36.11
2023-01-30T17:53:43.372Z,36.16
2023-01-30T17:56:13.732Z,35.61
2023-01-30T17:58:40.789Z,35.95
2023-01-30T18:01:07.800Z,35.88
2023-01-30T18:03:36.320Z,35.89
2023-01-30T18:06:03.583Z,36.02
2023-01-30T18:08:30.547Z,36.19
2023-01-30T18:10:57.660Z,36.22
2023-01-30T18:13:25.712Z,36.01
2023-01-30T18:15:55.702Z,36.23
2023-01-30T18:18:22.878Z,36.24
2023-01-30T18:20:50.257Z,36.10
2023-01-30T18:23:18.409Z,36.17
2023-01-30T18:25:46.036Z,35.87
2023-01-30T18:28:14.519Z,35.83
2023-01-30T18:30:41.679Z,36.22
2023-01-30T18:33:08.880Z,36.23
2023-01-30T18:35:39.039Z,36.05
2023-01-30T18:38:06.064Z,35.83
2023-01-30T18:40:33.414Z,35.92
2023-01-30T18:43:00.810Z,36.05
2023-01-30T18:45:27.812Z,36.22
2023-01-30T18:47:54.969Z,35.80
2023-01-30T18:50:22.065Z,35.88
2023-01-30T18:52:50.902Z,36.07
2023-01-30T18:55:18.111Z,35.79
2023-01-30T18:57:45.531Z,35.00
2023-01-30T19:00:12.769Z,35.14
2023-01-30T19:02:40.933Z,35.36
2023-01-30T19:05:08.723Z,34.76
2023-01-30T19:07:36.016Z,35.17
2023-01-30T19:10:03.454Z,34.97
2023-01-30T19:12:34.409Z,35.01
2023-01-30T19:15:02.249Z,34.61
2023-01-30T19:17:29.970Z,34.92
2023-01-30T19:19:58.655Z,35.23
2023-01-30T19:22:26.095Z,35.47
2023-01-30T19:24:53.333Z,35.46
2023-01-30T19:27:21.113Z,34.82
2023-01-30T19:29:50.374Z,35.09
2023-01-30T19:32:17.389Z,34.56
2023-01-30T19:34:45.700Z,34.46
2023-01-30T19:37:13.530Z,34.75
2023-01-30T19:39:41.006Z,35.19
2023-01-30T19:42:07.960Z,35.14
2023-01-30T19:44:35.333Z,35.41
2023-01-30T19:47:02.531Z,34.87
2023-01-30T19:49:29.611Z,34.92
2023-01-30T19:51:57.977Z,34.95
2023-01-30T19:54:24.823Z,35.20
2023-01-30T19:56:52.220Z,35.17
2023-01-30T19:59:19.307Z,35.45
2023-01-30T20:01:46.328Z,35.25
2023-01-30T20:04:13.844Z,35.00
2023-01-30T20:06:44.761Z,34.85
2023-01-30T20:09:11.760Z,35.17
2023-01-30T20:11:40.192Z,35.29
2023-01-30T20:14:07.458Z,34.98
2023-01-30T20:16:36.018Z,35.19
2023-01-30T20:19:05.723Z,34.84
2023-01-30T20:21:34.119Z,34.92
2023-01-30T20:24:02.966Z,35.02
2023-01-30T20:26:35.177Z,35.39
2023-01-30T20:29:03.324Z,35.11
2023-01-30T20:31:30.853Z,35.34
2023-01-30T20:34:01.077Z,35.51
2023-01-30T20:36:28.741Z,35.39
2023-01-30T20:38:57.281Z,35.39
2023-01-30T20:41:26.114Z,35.48
2023-01-30T20:43:57.902Z,35.20
2023-01-30T20:46:27.681Z,35.39
2023-01-30T20:48:56.598Z,35.47
2023-01-30T20:51:26.222Z,35.42
2023-01-30T20:53:54.819Z,35.34
2023-01-30T20:56:23.200Z,35.55
2023-01-30T20:58:51.375Z,36.23
2023-01-30T21:01:20.486Z,36.32
2023-01-30T21:03:49.891Z,36.11
2023-01-30T21:06:41.736Z,36.12
2023-01-30T21:09:08.187Z,36.31
2023-01-30T21:11:35.353Z,36.28
2023-01-30T21:14:02.608Z,36.23
2023-01-30T21:16:32.068Z,36.73
2023-01-30T21:19:02.002Z,36.83
2023-01-30T21:21:33.563Z,36.85
2023-01-30T21:24:02.498Z,36.83
2023-01-30T21:26:31.491Z,36.94
2023-01-30T21:29:00.262Z,36.83
2023-01-30T21:31:29.709Z,36.67
2023-01-30T21:33:58.301Z,36.71
2023-01-30T21:36:26.616Z,37.04
2023-01-30T21:38:56.781Z,36.70
2023-01-30T21:41:30.021Z,36.03
2023-01-30T21:43:57.262Z,36.95
2023-01-30T21:46:24.732Z,36.49
2023-01-30T21:48:51.932Z,36.83
2023-01-30T21:51:18.974Z,36.80
2023-01-30T21:53:45.993Z,37.05
2023-01-30T21:56:13.764Z,36.76
2023-01-30T21:58:40.659Z,36.82
2023-01-30T22:01:09.044Z,36.83
2023-01-30T22:03:36.768Z,37.30
2023-01-30T22:06:04.253Z,37.31
2023-01-30T22:08:32.079Z,37.36
2023-01-30T22:11:04.869Z,37.29
2023-01-30T22:13:33.129Z,37.34
2023-01-30T22:16:03.710Z,37.39
2023-01-30T22:18:33.363Z,37.71
2023-01-30T22:21:02.517Z,37.46
2023-01-30T22:23:31.223Z,37.69
2023-01-30T22:25:58.184Z,38.00
2023-01-30T22:28:26.221Z,37.40
2023-01-30T22:30:54.073Z,37.56
2023-01-30T22:33:22.020Z,37.33
2023-01-30T22:35:51.196Z,37.22
2023-01-30T22:38:20.611Z,37.34
2023-01-30T22:40:47.814Z,37.30
2023-01-30T22:43:15.688Z,37.42
2023-01-30T22:45:42.681Z,37.35
2023-01-30T22:48:12.342Z,37.63
2023-01-30T22:50:39.356Z,37.55
2023-01-30T22:53:06.664Z,37.19
2023-01-30T22:55:37.085Z,37.62
2023-01-30T22:58:04.093Z,37.22
2023-01-30T23:00:31.304Z,37.96
2023-01-30T23:02:58.244Z,37.73
2023-01-30T23:05:26.158Z,37.77
2023-01-30T23:07:52.971Z,37.57
2023-01-30T23:10:20.432Z,37.67
2023-01-30T23:12:50.501Z,37.95
2023-01-30T23:15:17.921Z,37.84
2023-01-30T23:17:48.611Z,38.02
2023-01-30T23:20:15.841Z,38.21
2023-01-30T23:22:42.825Z,38.06
2023-01-30T23:25:12.039Z,37.95
2023-01-30T23:27:39.106Z,37.66
2023-01-30T23:30:06.811Z,38.17
2023-01-30T23:32:35.546Z,37.84
2023-01-30T23:35:03.749Z,37.64
2023-01-30T23:37:35.852Z,37.62
2023-01-30T23:40:02.828Z,38.12
2023-01-30T23:42:29.900Z,37.95
2023-01-30T23:44:56.920Z,37.53
2023-01-30T23:47:23.961Z,37.92
2023-01-30T23:49:51.125Z,37.58
2023-01-30T23:52:18.742Z,37.93
2023-01-30T23:54:45.883Z,37.62
2023-01-30T23:57:13.841Z,37.45
2023-01-30T23:59:41.278Z,37.60
